Ohyamamaru — JG5507 — position and weather

sailwx.info

Track history (hours):
 
Tides and Currents Weather Stations Pressure Air Temp Water Temp Dewpoint Dewpoint Depression Visibility Wind Speed Wind Dir Waves Ship Positions

Ohyamamaru

Last reported at 2016-Feb-06 06:33 UTC. Time now 2016-Feb-06 07:21 UTC.
Position N 35°38' E 139°45'.

Length 36 m; draft 4.4 m.

Type: Tug. MMSI: 431001114.

Date/timePositionNaut miles runAvg speedWind from/ knotsBaromVisibWave heightAir tempDewpointWater temp
2016-Feb-06 06:33N 35°38' E 139°45'0 0.0
2016-Feb-06 05:33N 35°38' E 139°45'0 0.0
2016-Feb-06 04:33N 35°38' E 139°45'4 4.3
2016-Feb-06 03:33N 35°35' E 139°48'4 4.3
2016-Feb-06 02:33N 35°38' E 139°45'0 0.0
2016-Feb-06 01:33N 35°38' E 139°45'0 0.0
2016-Feb-06 00:33N 35°38' E 139°45'0 0.0
2016-Feb-05 23:33N 35°38' E 139°45'0 0.0
2016-Feb-05 22:33N 35°38' E 139°45'0 0.0
2016-Feb-05 21:33N 35°38' E 139°45'0 0.0
2016-Feb-05 20:33N 35°38' E 139°45'0 0.0
2016-Feb-05 19:33N 35°38' E 139°45'0 0.0
2016-Feb-05 18:33N 35°38' E 139°45'0 0.0
2016-Feb-05 17:33N 35°38' E 139°45'0 0.0
2016-Feb-05 16:33N 35°38' E 139°45'0 0.0
2016-Feb-05 15:33N 35°38' E 139°45'0 0.0
2016-Feb-05 14:33N 35°38' E 139°45'1 0.7
2016-Feb-05 13:34N 35°38' E 139°46'1 0.7
2016-Feb-05 12:33N 35°38' E 139°45'0 0.0
2016-Feb-05 11:33N 35°38' E 139°45'0 0.0
2016-Feb-05 10:33N 35°38' E 139°45'0 0.0
2016-Feb-05 09:33N 35°38' E 139°45'2 1.5
2016-Feb-05 08:34N 35°37' E 139°46'2 1.5
2016-Feb-05 07:33N 35°38' E 139°45'0 0.1
2016-Feb-05 06:33N 35°38' E 139°45'0 0.1
2016-Feb-05 05:33N 35°38' E 139°45'0 0.0
2016-Feb-05 04:33N 35°38' E 139°45'0 0.0
2016-Feb-05 03:33N 35°38' E 139°45'0 0.0
2016-Feb-05 02:33N 35°38' E 139°45'0 0.0
2016-Feb-05 01:33N 35°38' E 139°45'0 0.0
2016-Feb-05 00:33N 35°38' E 139°45'0 0.0
2016-Feb-04 23:33N 35°38' E 139°45'1 1.5
2016-Feb-04 22:33N 35°37' E 139°46'3 2.9
2016-Feb-04 21:33N 35°35' E 139°48'4 4.2
2016-Feb-04 20:33N 35°38' E 139°45'0 0.0
2016-Feb-04 19:33N 35°38' E 139°45'0 0.0
2016-Feb-04 18:33N 35°38' E 139°45'0 0.0
2016-Feb-04 17:33N 35°38' E 139°45'0 0.0
2016-Feb-04 16:33N 35°38' E 139°45'0 0.0
2016-Feb-04 15:33N 35°38' E 139°45'0 0.0
2016-Feb-04 14:33N 35°38' E 139°45'0 0.0
2016-Feb-04 13:33N 35°38' E 139°45'0 0.0
2016-Feb-04 12:33N 35°38' E 139°45'0 0.0
2016-Feb-04 11:33N 35°38' E 139°45'0 0.0
2016-Feb-04 10:33N 35°38' E 139°45'0 0.0
2016-Feb-04 09:33N 35°38' E 139°45'0 0.0
2016-Feb-04 08:33N 35°38' E 139°45'0 0.0
2016-Feb-04 07:33N 35°38' E 139°45'0 0.0
2016-Feb-04 06:33N 35°38' E 139°45'0 0.0
2016-Feb-04 05:33N 35°38' E 139°45'0 0.0
2016-Feb-04 04:33N 35°38' E 139°45'0 0.0
2016-Feb-04 03:33N 35°38' E 139°45'0 0.0
2016-Feb-04 02:33N 35°38' E 139°45'0 0.0
2016-Feb-04 01:33N 35°38' E 139°45'0 0.0
2016-Feb-04 00:33N 35°38' E 139°45'0 0.0
2016-Feb-03 23:33N 35°38' E 139°45'1 1.1
2016-Feb-03 22:33N 35°37' E 139°46'4 4.1
2016-Feb-03 21:34N 35°34' E 139°49'2 2.4
2016-Feb-03 20:33N 35°35' E 139°47'3 2.6
2016-Feb-03 19:33N 35°38' E 139°46'0 0.3
2016-Feb-03 18:33N 35°38' E 139°45'0 0.0
2016-Feb-03 17:33N 35°38' E 139°45'0 0.0
2016-Feb-03 16:33N 35°38' E 139°45'0 0.0
2016-Feb-03 15:33N 35°38' E 139°45'0 0.0
2016-Feb-03 14:33N 35°38' E 139°45'0 0.0
2016-Feb-03 13:33N 35°38' E 139°45'0 0.0
2016-Feb-03 12:33N 35°38' E 139°45'0 0.0
2016-Feb-03 11:33N 35°38' E 139°45'0 0.0
2016-Feb-03 10:33N 35°38' E 139°45'0 0.0
2016-Feb-03 09:33N 35°38' E 139°45'0 0.0
2016-Feb-03 08:33N 35°38' E 139°45'0 0.0
2016-Feb-03 07:33N 35°38' E 139°45'0 0.0
2016-Feb-03 06:33N 35°38' E 139°45'0 0.0
2016-Feb-03 05:31N 35°38' E 139°45'0 0.0
2016-Feb-03 04:33N 35°38' E 139°45'0 0.0
2016-Feb-03 03:33N 35°38' E 139°45'2 1.9
2016-Feb-03 02:33N 35°36' E 139°46'2 2.4
2016-Feb-03 01:33N 35°39' E 139°47'0 0.0
2016-Feb-03 00:33N 35°39' E 139°47'1 1.1
2016-Feb-02 23:33N 35°38' E 139°45'0 0.0
2016-Feb-02 22:33N 35°38' E 139°45'0 0.0
2016-Feb-02 21:33N 35°38' E 139°45'0 0.0
2016-Feb-02 20:33N 35°38' E 139°45'0 0.0
2016-Feb-02 19:33N 35°38' E 139°45'0 0.0
2016-Feb-02 18:33N 35°38' E 139°45'0 0.0
2016-Feb-02 17:33N 35°38' E 139°45'0 0.0
2016-Feb-02 16:33N 35°38' E 139°45'0 0.0
2016-Feb-02 15:33N 35°38' E 139°45'0 0.0
2016-Feb-02 14:33N 35°38' E 139°45'0 0.0
2016-Feb-02 13:33N 35°38' E 139°45'0 0.0
2016-Feb-02 12:33N 35°38' E 139°45'3 2.8
2016-Feb-02 11:33N 35°36' E 139°47'1 0.8
2016-Feb-02 10:33N 35°36' E 139°46'2 2.1
2016-Feb-02 09:33N 35°38' E 139°45'2 2.4
2016-Feb-02 08:33N 35°36' E 139°46'0 0.3
2016-Feb-02 07:33N 35°36' E 139°47'3 2.6
2016-Feb-02 06:33N 35°38' E 139°45'0 0.0
2016-Feb-02 05:33N 35°38' E 139°45'0 0.0
2016-Feb-02 04:33N 35°38' E 139°45'0 0.0
2016-Feb-02 03:33N 35°38' E 139°45'0 0.0
2016-Feb-02 02:33N 35°38' E 139°45'0 0.0
2016-Feb-02 01:33N 35°38' E 139°45'0 0.0
2016-Feb-02 00:33N 35°38' E 139°45'0 0.0
2016-Feb-01 23:33N 35°38' E 139°45'0 0.0
2016-Feb-01 22:33N 35°38' E 139°45'0 0.0
2016-Feb-01 21:33N 35°38' E 139°45'0 0.0
2016-Feb-01 20:33N 35°38' E 139°45'0 0.0
2016-Feb-01 19:33N 35°38' E 139°45'0 0.0
2016-Feb-01 18:33N 35°38' E 139°45'0 0.0
2016-Feb-01 17:33N 35°38' E 139°45'0 0.0
2016-Feb-01 16:33N 35°38' E 139°45'0 0.0
2016-Feb-01 15:33N 35°38' E 139°45'0 0.0
2016-Feb-01 14:33N 35°38' E 139°45'0 0.0
2016-Feb-01 13:33N 35°38' E 139°45'0 0.0
2016-Feb-01 12:33N 35°38' E 139°45'0 0.0
2016-Feb-01 11:33N 35°38' E 139°45'0 0.0
2016-Feb-01 10:33N 35°38' E 139°45'0 0.0
2016-Feb-01 09:33N 35°38' E 139°45'0 0.0
2016-Feb-01 08:33N 35°38' E 139°45'2 1.8
2016-Feb-01 07:33N 35°36' E 139°46'2 1.8
2016-Feb-01 06:33N 35°38' E 139°45'0 0.0
2016-Feb-01 05:33N 35°38' E 139°45'0 0.0
2016-Feb-01 04:33N 35°38' E 139°45'0 0.0
2016-Feb-01 03:33N 35°38' E 139°45'0 0.0
2016-Feb-01 02:33N 35°38' E 139°45'0 0.0
2016-Feb-01 01:33N 35°38' E 139°45'0 0.0
2016-Feb-01 00:33N 35°38' E 139°45'0 0.0
2016-Jan-31 23:33N 35°38' E 139°45'2 2.3
2016-Jan-31 22:33N 35°36' E 139°46'3 3.3
2016-Jan-31 21:33N 35°34' E 139°49'3 3.3
2016-Jan-31 20:33N 35°36' E 139°47'2 2.0
2016-Jan-31 19:33N 35°38' E 139°45'0 0.0
2016-Jan-31 18:33N 35°38' E 139°45'0 0.0
2016-Jan-31 17:33N 35°38' E 139°45'0 0.0
2016-Jan-31 16:33N 35°38' E 139°45'0 0.0
2016-Jan-31 15:33N 35°38' E 139°45'0 0.0
2016-Jan-31 14:33N 35°38' E 139°45'0 0.0
2016-Jan-31 13:33N 35°38' E 139°45'0 0.0
2016-Jan-31 12:33N 35°38' E 139°45'0 0.0
2016-Jan-31 11:33N 35°38' E 139°45'0 0.0
2016-Jan-31 10:33N 35°38' E 139°45'0 0.0
2016-Jan-31 09:33N 35°38' E 139°45'0 0.0
2016-Jan-31 08:33N 35°38' E 139°45'0 0.0
2016-Jan-31 07:33N 35°38' E 139°45'2 2.0
2016-Jan-31 06:33N 35°36' E 139°46'2 2.0
2016-Jan-31 05:33N 35°38' E 139°45'0 0.0
2016-Jan-31 04:33N 35°38' E 139°45'0 0.0
2016-Jan-31 03:33N 35°38' E 139°45'0 0.0
2016-Jan-31 02:32N 35°38' E 139°45'1 1.2
2016-Jan-31 01:33N 35°39' E 139°47'2 1.9
2016-Jan-31 00:33N 35°37' E 139°46'1 1.4
2016-Jan-30 23:33N 35°38' E 139°45'0 0.0
2016-Jan-30 22:33N 35°38' E 139°45'0 0.0
2016-Jan-30 21:33N 35°38' E 139°45'0 0.0
2016-Jan-30 20:33N 35°38' E 139°45'0 0.0
2016-Jan-30 19:33N 35°38' E 139°45'0 0.0
2016-Jan-30 18:33N 35°38' E 139°45'0 0.0
2016-Jan-30 17:33N 35°38' E 139°45'0 0.0
2016-Jan-30 16:33N 35°38' E 139°45'0 0.0
2016-Jan-30 15:33N 35°38' E 139°45'0 0.0
2016-Jan-30 14:33N 35°38' E 139°45'0 0.0
2016-Jan-30 13:33N 35°38' E 139°45'0 0.0
2016-Jan-30 12:33N 35°38' E 139°45'0 0.0
2016-Jan-30 11:33N 35°38' E 139°45'0 0.0
2016-Jan-30 10:33N 35°38' E 139°45'0 0.0
2016-Jan-30 09:33N 35°38' E 139°45'0 0.0
2016-Jan-30 08:33N 35°38' E 139°45'0 0.0
2016-Jan-30 07:33N 35°38' E 139°45'2 2.3
2016-Jan-30 06:33N 35°37' E 139°48'1 1.3
2016-Jan-30 05:33N 35°37' E 139°49'3 3.3
2016-Jan-30 04:33N 35°38' E 139°45'0 0.0
2016-Jan-30 03:33N 35°38' E 139°45'0 0.0
2016-Jan-30 02:33N 35°38' E 139°45'0 0.0
2016-Jan-30 01:33N 35°38' E 139°45'0 0.0
2016-Jan-30 00:33N 35°38' E 139°45'2 2.3
2016-Jan-29 23:33N 35°36' E 139°46'3 3.1
2016-Jan-29 22:33N 35°34' E 139°49'5 5.1
2016-Jan-29 21:33N 35°38' E 139°45'0 0.0
2016-Jan-29 20:33N 35°38' E 139°45'0 0.0
2016-Jan-29 19:33N 35°38' E 139°45'0 0.0
2016-Jan-29 18:33N 35°38' E 139°45'0 0.0
2016-Jan-29 17:33N 35°38' E 139°45'0 0.0
2016-Jan-29 16:33N 35°38' E 139°45'0 0.0
2016-Jan-29 15:33N 35°38' E 139°45'0 0.0
2016-Jan-29 14:32N 35°38' E 139°45'0 0.0
2016-Jan-29 13:33N 35°38' E 139°45'0 0.0
2016-Jan-29 12:33N 35°38' E 139°45'0 0.0
2016-Jan-29 11:33N 35°38' E 139°45'0 0.0
2016-Jan-29 10:33N 35°38' E 139°45'0 0.0
2016-Jan-29 09:33N 35°38' E 139°45'2 2.2
2016-Jan-29 08:33N 35°36' E 139°47'2 2.2
2016-Jan-29 07:33N 35°38' E 139°45'0 0.0
2016-Jan-29 06:33N 35°38' E 139°45'0 0.0
2016-Jan-29 05:33N 35°38' E 139°45'0 0.0
2016-Jan-29 04:33N 35°38' E 139°45'0 0.0
2016-Jan-29 03:33N 35°38' E 139°45'0 0.0
2016-Jan-29 02:33N 35°38' E 139°45'0 0.0
2016-Jan-29 01:33N 35°38' E 139°45'0 0.0
2016-Jan-29 00:33N 35°38' E 139°45'0 0.0
2016-Jan-28 23:33N 35°38' E 139°45'3 3.3
2016-Jan-28 22:33N 35°35' E 139°47'3 3.2
2016-Jan-28 21:34N 35°38' E 139°46'0 0.1
2016-Jan-28 20:33N 35°38' E 139°45'0 0.0
2016-Jan-28 19:33N 35°38' E 139°45'0 0.0
2016-Jan-28 18:33N 35°38' E 139°45'0 0.0
2016-Jan-28 17:33N 35°38' E 139°45'0 0.0
2016-Jan-28 16:33N 35°38' E 139°45'0 0.0
2016-Jan-28 15:33N 35°38' E 139°45'0 0.0
2016-Jan-28 14:33N 35°38' E 139°45'0 0.0
2016-Jan-28 13:33N 35°38' E 139°45'0 0.0
2016-Jan-28 12:33N 35°38' E 139°45'0 0.0
2016-Jan-28 11:33N 35°38' E 139°45'0 0.0
2016-Jan-28 10:33N 35°38' E 139°45'0 0.0
2016-Jan-28 09:33N 35°38' E 139°45'3 2.8
2016-Jan-28 08:34N 35°36' E 139°48'1 1.3
2016-Jan-28 07:34N 35°37' E 139°49'3 2.8
2016-Jan-28 06:33N 35°38' E 139°46'0 0.2
2016-Jan-28 05:33N 35°38' E 139°45'0 0.0
2016-Jan-28 04:33N 35°38' E 139°45'0 0.0
2016-Jan-28 03:33N 35°38' E 139°45'0 0.0
2016-Jan-28 02:33N 35°38' E 139°45'2 2.3
2016-Jan-28 01:33N 35°36' E 139°47'2 2.0
2016-Jan-28 00:33N 35°38' E 139°46'0 0.3
2016-Jan-27 23:33N 35°38' E 139°45'0 0.0
2016-Jan-27 22:33N 35°38' E 139°45'0 0.0
2016-Jan-27 21:33N 35°38' E 139°45'0 0.0
2016-Jan-27 20:33N 35°38' E 139°45'0 0.0
2016-Jan-27 19:33N 35°38' E 139°45'0 0.0
2016-Jan-27 18:33N 35°38' E 139°45'0 0.0
2016-Jan-27 17:33N 35°38' E 139°45'0 0.0
2016-Jan-27 16:33N 35°38' E 139°45'0 0.0
2016-Jan-27 15:33N 35°38' E 139°45'0 0.0
2016-Jan-27 14:33N 35°38' E 139°45'0 0.0
2016-Jan-27 13:33N 35°38' E 139°45'0 0.0
2016-Jan-27 12:33N 35°38' E 139°45'0 0.0
2016-Jan-27 11:33N 35°38' E 139°45'0 0.0
2016-Jan-27 10:33N 35°38' E 139°45'2 2.3
2016-Jan-27 09:33N 35°36' E 139°46'1 0.7
2016-Jan-27 08:33N 35°36' E 139°47'3 2.7
2016-Jan-27 07:33N 35°38' E 139°45'0 0.0
2016-Jan-27 06:33N 35°38' E 139°45'  
Track history (hours):
 
Tides and Currents Weather Stations Pressure Air Temp Water Temp Dewpoint Dewpoint Depression Visibility Wind Speed Wind Dir Waves Ship Positions

Ohyamamaru

Last reported at 2016-Feb-06 06:33 UTC. Time now 2016-Feb-06 07:21 UTC.
Position N 35°38' E 139°45'.

Length 36 m; draft 4.4 m.

Type: Tug. MMSI: 431001114.

Date/timePositionNaut miles runAvg speedWind from/ knotsBaromVisibWave heightAir tempDewpointWater temp
2016-Feb-06 06:33N 35°38' E 139°45'0 0.0
2016-Feb-06 05:33N 35°38' E 139°45'0 0.0
2016-Feb-06 04:33N 35°38' E 139°45'4 4.3
2016-Feb-06 03:33N 35°35' E 139°48'4 4.3
2016-Feb-06 02:33N 35°38' E 139°45'0 0.0
2016-Feb-06 01:33N 35°38' E 139°45'0 0.0
2016-Feb-06 00:33N 35°38' E 139°45'0 0.0
2016-Feb-05 23:33N 35°38' E 139°45'0 0.0
2016-Feb-05 22:33N 35°38' E 139°45'0 0.0
2016-Feb-05 21:33N 35°38' E 139°45'0 0.0
2016-Feb-05 20:33N 35°38' E 139°45'0 0.0
2016-Feb-05 19:33N 35°38' E 139°45'0 0.0
2016-Feb-05 18:33N 35°38' E 139°45'0 0.0
2016-Feb-05 17:33N 35°38' E 139°45'0 0.0
2016-Feb-05 16:33N 35°38' E 139°45'0 0.0
2016-Feb-05 15:33N 35°38' E 139°45'0 0.0
2016-Feb-05 14:33N 35°38' E 139°45'1 0.7
2016-Feb-05 13:34N 35°38' E 139°46'1 0.7
2016-Feb-05 12:33N 35°38' E 139°45'0 0.0
2016-Feb-05 11:33N 35°38' E 139°45'0 0.0
2016-Feb-05 10:33N 35°38' E 139°45'0 0.0
2016-Feb-05 09:33N 35°38' E 139°45'2 1.5
2016-Feb-05 08:34N 35°37' E 139°46'2 1.5
2016-Feb-05 07:33N 35°38' E 139°45'0 0.1
2016-Feb-05 06:33N 35°38' E 139°45'0 0.1
2016-Feb-05 05:33N 35°38' E 139°45'0 0.0
2016-Feb-05 04:33N 35°38' E 139°45'0 0.0
2016-Feb-05 03:33N 35°38' E 139°45'0 0.0
2016-Feb-05 02:33N 35°38' E 139°45'0 0.0
2016-Feb-05 01:33N 35°38' E 139°45'0 0.0
2016-Feb-05 00:33N 35°38' E 139°45'0 0.0
2016-Feb-04 23:33N 35°38' E 139°45'1 1.5
2016-Feb-04 22:33N 35°37' E 139°46'3 2.9
2016-Feb-04 21:33N 35°35' E 139°48'4 4.2
2016-Feb-04 20:33N 35°38' E 139°45'0 0.0
2016-Feb-04 19:33N 35°38' E 139°45'0 0.0
2016-Feb-04 18:33N 35°38' E 139°45'0 0.0
2016-Feb-04 17:33N 35°38' E 139°45'0 0.0
2016-Feb-04 16:33N 35°38' E 139°45'0 0.0
2016-Feb-04 15:33N 35°38' E 139°45'0 0.0
2016-Feb-04 14:33N 35°38' E 139°45'0 0.0
2016-Feb-04 13:33N 35°38' E 139°45'0 0.0
2016-Feb-04 12:33N 35°38' E 139°45'0 0.0
2016-Feb-04 11:33N 35°38' E 139°45'0 0.0
2016-Feb-04 10:33N 35°38' E 139°45'0 0.0
2016-Feb-04 09:33N 35°38' E 139°45'0 0.0
2016-Feb-04 08:33N 35°38' E 139°45'0 0.0
2016-Feb-04 07:33N 35°38' E 139°45'0 0.0
2016-Feb-04 06:33N 35°38' E 139°45'0 0.0
2016-Feb-04 05:33N 35°38' E 139°45'0 0.0
2016-Feb-04 04:33N 35°38' E 139°45'0 0.0
2016-Feb-04 03:33N 35°38' E 139°45'0 0.0
2016-Feb-04 02:33N 35°38' E 139°45'0 0.0
2016-Feb-04 01:33N 35°38' E 139°45'0 0.0
2016-Feb-04 00:33N 35°38' E 139°45'0 0.0
2016-Feb-03 23:33N 35°38' E 139°45'1 1.1
2016-Feb-03 22:33N 35°37' E 139°46'4 4.1
2016-Feb-03 21:34N 35°34' E 139°49'2 2.4
2016-Feb-03 20:33N 35°35' E 139°47'3 2.6
2016-Feb-03 19:33N 35°38' E 139°46'0 0.3
2016-Feb-03 18:33N 35°38' E 139°45'0 0.0
2016-Feb-03 17:33N 35°38' E 139°45'0 0.0
2016-Feb-03 16:33N 35°38' E 139°45'0 0.0
2016-Feb-03 15:33N 35°38' E 139°45'0 0.0
2016-Feb-03 14:33N 35°38' E 139°45'0 0.0
2016-Feb-03 13:33N 35°38' E 139°45'0 0.0
2016-Feb-03 12:33N 35°38' E 139°45'0 0.0
2016-Feb-03 11:33N 35°38' E 139°45'0 0.0
2016-Feb-03 10:33N 35°38' E 139°45'0 0.0
2016-Feb-03 09:33N 35°38' E 139°45'0 0.0
2016-Feb-03 08:33N 35°38' E 139°45'0 0.0
2016-Feb-03 07:33N 35°38' E 139°45'0 0.0
2016-Feb-03 06:33N 35°38' E 139°45'0 0.0
2016-Feb-03 05:31N 35°38' E 139°45'0 0.0
2016-Feb-03 04:33N 35°38' E 139°45'0 0.0
2016-Feb-03 03:33N 35°38' E 139°45'2 1.9
2016-Feb-03 02:33N 35°36' E 139°46'2 2.4
2016-Feb-03 01:33N 35°39' E 139°47'0 0.0
2016-Feb-03 00:33N 35°39' E 139°47'1 1.1
2016-Feb-02 23:33N 35°38' E 139°45'0 0.0
2016-Feb-02 22:33N 35°38' E 139°45'0 0.0
2016-Feb-02 21:33N 35°38' E 139°45'0 0.0
2016-Feb-02 20:33N 35°38' E 139°45'0 0.0
2016-Feb-02 19:33N 35°38' E 139°45'0 0.0
2016-Feb-02 18:33N 35°38' E 139°45'0 0.0
2016-Feb-02 17:33N 35°38' E 139°45'0 0.0
2016-Feb-02 16:33N 35°38' E 139°45'0 0.0
2016-Feb-02 15:33N 35°38' E 139°45'0 0.0
2016-Feb-02 14:33N 35°38' E 139°45'0 0.0
2016-Feb-02 13:33N 35°38' E 139°45'0 0.0
2016-Feb-02 12:33N 35°38' E 139°45'3 2.8
2016-Feb-02 11:33N 35°36' E 139°47'1 0.8
2016-Feb-02 10:33N 35°36' E 139°46'2 2.1
2016-Feb-02 09:33N 35°38' E 139°45'2 2.4
2016-Feb-02 08:33N 35°36' E 139°46'0 0.3
2016-Feb-02 07:33N 35°36' E 139°47'3 2.6
2016-Feb-02 06:33N 35°38' E 139°45'0 0.0
2016-Feb-02 05:33N 35°38' E 139°45'0 0.0
2016-Feb-02 04:33N 35°38' E 139°45'0 0.0
2016-Feb-02 03:33N 35°38' E 139°45'0 0.0
2016-Feb-02 02:33N 35°38' E 139°45'0 0.0
2016-Feb-02 01:33N 35°38' E 139°45'0 0.0
2016-Feb-02 00:33N 35°38' E 139°45'0 0.0
2016-Feb-01 23:33N 35°38' E 139°45'0 0.0
2016-Feb-01 22:33N 35°38' E 139°45'0 0.0
2016-Feb-01 21:33N 35°38' E 139°45'0 0.0
2016-Feb-01 20:33N 35°38' E 139°45'0 0.0
2016-Feb-01 19:33N 35°38' E 139°45'0 0.0
2016-Feb-01 18:33N 35°38' E 139°45'0 0.0
2016-Feb-01 17:33N 35°38' E 139°45'0 0.0
2016-Feb-01 16:33N 35°38' E 139°45'0 0.0
2016-Feb-01 15:33N 35°38' E 139°45'0 0.0
2016-Feb-01 14:33N 35°38' E 139°45'0 0.0
2016-Feb-01 13:33N 35°38' E 139°45'0 0.0
2016-Feb-01 12:33N 35°38' E 139°45'0 0.0
2016-Feb-01 11:33N 35°38' E 139°45'0 0.0
2016-Feb-01 10:33N 35°38' E 139°45'0 0.0
2016-Feb-01 09:33N 35°38' E 139°45'0 0.0
2016-Feb-01 08:33N 35°38' E 139°45'2 1.8
2016-Feb-01 07:33N 35°36' E 139°46'2 1.8
2016-Feb-01 06:33N 35°38' E 139°45'0 0.0
2016-Feb-01 05:33N 35°38' E 139°45'0 0.0
2016-Feb-01 04:33N 35°38' E 139°45'0 0.0
2016-Feb-01 03:33N 35°38' E 139°45'0 0.0
2016-Feb-01 02:33N 35°38' E 139°45'0 0.0
2016-Feb-01 01:33N 35°38' E 139°45'0 0.0
2016-Feb-01 00:33N 35°38' E 139°45'0 0.0
2016-Jan-31 23:33N 35°38' E 139°45'2 2.3
2016-Jan-31 22:33N 35°36' E 139°46'3 3.3
2016-Jan-31 21:33N 35°34' E 139°49'3 3.3
2016-Jan-31 20:33N 35°36' E 139°47'2 2.0
2016-Jan-31 19:33N 35°38' E 139°45'0 0.0
2016-Jan-31 18:33N 35°38' E 139°45'0 0.0
2016-Jan-31 17:33N 35°38' E 139°45'0 0.0
2016-Jan-31 16:33N 35°38' E 139°45'0 0.0
2016-Jan-31 15:33N 35°38' E 139°45'0 0.0
2016-Jan-31 14:33N 35°38' E 139°45'0 0.0
2016-Jan-31 13:33N 35°38' E 139°45'0 0.0
2016-Jan-31 12:33N 35°38' E 139°45'0 0.0
2016-Jan-31 11:33N 35°38' E 139°45'0 0.0
2016-Jan-31 10:33N 35°38' E 139°45'0 0.0
2016-Jan-31 09:33N 35°38' E 139°45'0 0.0
2016-Jan-31 08:33N 35°38' E 139°45'0 0.0
2016-Jan-31 07:33N 35°38' E 139°45'2 2.0
2016-Jan-31 06:33N 35°36' E 139°46'2 2.0
2016-Jan-31 05:33N 35°38' E 139°45'0 0.0
2016-Jan-31 04:33N 35°38' E 139°45'0 0.0
2016-Jan-31 03:33N 35°38' E 139°45'0 0.0
2016-Jan-31 02:32N 35°38' E 139°45'1 1.2
2016-Jan-31 01:33N 35°39' E 139°47'2 1.9
2016-Jan-31 00:33N 35°37' E 139°46'1 1.4
2016-Jan-30 23:33N 35°38' E 139°45'0 0.0
2016-Jan-30 22:33N 35°38' E 139°45'0 0.0
2016-Jan-30 21:33N 35°38' E 139°45'0 0.0
2016-Jan-30 20:33N 35°38' E 139°45'0 0.0
2016-Jan-30 19:33N 35°38' E 139°45'0 0.0
2016-Jan-30 18:33N 35°38' E 139°45'0 0.0
2016-Jan-30 17:33N 35°38' E 139°45'0 0.0
2016-Jan-30 16:33N 35°38' E 139°45'0 0.0
2016-Jan-30 15:33N 35°38' E 139°45'0 0.0
2016-Jan-30 14:33N 35°38' E 139°45'0 0.0
2016-Jan-30 13:33N 35°38' E 139°45'0 0.0
2016-Jan-30 12:33N 35°38' E 139°45'0 0.0
2016-Jan-30 11:33N 35°38' E 139°45'0 0.0
2016-Jan-30 10:33N 35°38' E 139°45'0 0.0
2016-Jan-30 09:33N 35°38' E 139°45'0 0.0
2016-Jan-30 08:33N 35°38' E 139°45'0 0.0
2016-Jan-30 07:33N 35°38' E 139°45'2 2.3
2016-Jan-30 06:33N 35°37' E 139°48'1 1.3
2016-Jan-30 05:33N 35°37' E 139°49'3 3.3
2016-Jan-30 04:33N 35°38' E 139°45'0 0.0
2016-Jan-30 03:33N 35°38' E 139°45'0 0.0
2016-Jan-30 02:33N 35°38' E 139°45'0 0.0
2016-Jan-30 01:33N 35°38' E 139°45'0 0.0
2016-Jan-30 00:33N 35°38' E 139°45'2 2.3
2016-Jan-29 23:33N 35°36' E 139°46'3 3.1
2016-Jan-29 22:33N 35°34' E 139°49'5 5.1
2016-Jan-29 21:33N 35°38' E 139°45'0 0.0
2016-Jan-29 20:33N 35°38' E 139°45'0 0.0
2016-Jan-29 19:33N 35°38' E 139°45'0 0.0
2016-Jan-29 18:33N 35°38' E 139°45'0 0.0
2016-Jan-29 17:33N 35°38' E 139°45'0 0.0
2016-Jan-29 16:33N 35°38' E 139°45'0 0.0
2016-Jan-29 15:33N 35°38' E 139°45'0 0.0
2016-Jan-29 14:32N 35°38' E 139°45'0 0.0
2016-Jan-29 13:33N 35°38' E 139°45'0 0.0
2016-Jan-29 12:33N 35°38' E 139°45'0 0.0
2016-Jan-29 11:33N 35°38' E 139°45'0 0.0
2016-Jan-29 10:33N 35°38' E 139°45'0 0.0
2016-Jan-29 09:33N 35°38' E 139°45'2 2.2
2016-Jan-29 08:33N 35°36' E 139°47'2 2.2
2016-Jan-29 07:33N 35°38' E 139°45'0 0.0
2016-Jan-29 06:33N 35°38' E 139°45'0 0.0
2016-Jan-29 05:33N 35°38' E 139°45'0 0.0
2016-Jan-29 04:33N 35°38' E 139°45'0 0.0
2016-Jan-29 03:33N 35°38' E 139°45'0 0.0
2016-Jan-29 02:33N 35°38' E 139°45'0 0.0
2016-Jan-29 01:33N 35°38' E 139°45'0 0.0
2016-Jan-29 00:33N 35°38' E 139°45'0 0.0
2016-Jan-28 23:33N 35°38' E 139°45'3 3.3
2016-Jan-28 22:33N 35°35' E 139°47'3 3.2
2016-Jan-28 21:34N 35°38' E 139°46'0 0.1
2016-Jan-28 20:33N 35°38' E 139°45'0 0.0
2016-Jan-28 19:33N 35°38' E 139°45'0 0.0
2016-Jan-28 18:33N 35°38' E 139°45'0 0.0
2016-Jan-28 17:33N 35°38' E 139°45'0 0.0
2016-Jan-28 16:33N 35°38' E 139°45'0 0.0
2016-Jan-28 15:33N 35°38' E 139°45'0 0.0
2016-Jan-28 14:33N 35°38' E 139°45'0 0.0
2016-Jan-28 13:33N 35°38' E 139°45'0 0.0
2016-Jan-28 12:33N 35°38' E 139°45'0 0.0
2016-Jan-28 11:33N 35°38' E 139°45'0 0.0
2016-Jan-28 10:33N 35°38' E 139°45'0 0.0
2016-Jan-28 09:33N 35°38' E 139°45'3 2.8
2016-Jan-28 08:34N 35°36' E 139°48'1 1.3
2016-Jan-28 07:34N 35°37' E 139°49'3 2.8
2016-Jan-28 06:33N 35°38' E 139°46'0 0.2
2016-Jan-28 05:33N 35°38' E 139°45'0 0.0
2016-Jan-28 04:33N 35°38' E 139°45'0 0.0
2016-Jan-28 03:33N 35°38' E 139°45'0 0.0
2016-Jan-28 02:33N 35°38' E 139°45'2 2.3
2016-Jan-28 01:33N 35°36' E 139°47'2 2.0
2016-Jan-28 00:33N 35°38' E 139°46'0 0.3
2016-Jan-27 23:33N 35°38' E 139°45'0 0.0
2016-Jan-27 22:33N 35°38' E 139°45'0 0.0
2016-Jan-27 21:33N 35°38' E 139°45'0 0.0
2016-Jan-27 20:33N 35°38' E 139°45'0 0.0
2016-Jan-27 19:33N 35°38' E 139°45'0 0.0
2016-Jan-27 18:33N 35°38' E 139°45'0 0.0
2016-Jan-27 17:33N 35°38' E 139°45'0 0.0
2016-Jan-27 16:33N 35°38' E 139°45'0 0.0
2016-Jan-27 15:33N 35°38' E 139°45'0 0.0
2016-Jan-27 14:33N 35°38' E 139°45'0 0.0
2016-Jan-27 13:33N 35°38' E 139°45'0 0.0
2016-Jan-27 12:33N 35°38' E 139°45'0 0.0
2016-Jan-27 11:33N 35°38' E 139°45'0 0.0
2016-Jan-27 10:33N 35°38' E 139°45'2 2.3
2016-Jan-27 09:33N 35°36' E 139°46'1 0.7
2016-Jan-27 08:33N 35°36' E 139°47'3 2.7
2016-Jan-27 07:33N 35°38' E 139°45'0 0.0
2016-Jan-27 06:33N 35°38' E 139°45'  

Dump ship's entire track history